Time;durP1;ratioP1;P1;durP2;ratioP2;P2;SDS_P1;SDS_P2;PMS_P1;PMS_P2;Temp;Humidity;BMP_temperature;BMP_pressure;BME280_temperature;BME280_humidity;BME280_pressure;Samples;Min_cycle;Max_cycle;Signal;HPM_P1;HPM_P2
2023/01/20 00:00:10;;;;;;;15.00;7.83;;;-3.30;99.90;;;;;;5021508;28;20984;-49
2023/01/20 00:02:37;;;;;;;8.90;6.03;;;-3.40;99.90;;;;;;5009709;28;20477;-49
2023/01/20 00:05:05;;;;;;;10.70;6.70;;;-3.40;99.90;;;;;;5026057;28;20490;-48
2023/01/20 00:07:33;;;;;;;10.93;6.57;;;-3.40;99.90;;;;;;5018430;28;20433;-49
2023/01/20 00:10:00;;;;;;;10.40;4.80;;;-3.40;99.90;;;;;;5023054;28;20454;-49
2023/01/20 00:12:30;;;;;;;8.07;4.53;;;-3.40;99.90;;;;;;5015670;28;20482;-49
2023/01/20 00:14:59;;;;;;;7.67;3.83;;;-3.40;99.90;;;;;;5009905;28;20200;-48
2023/01/20 00:17:26;;;;;;;7.87;4.23;;;-3.50;99.90;;;;;;5017488;28;20561;-49
2023/01/20 00:19:52;;;;;;;7.07;4.63;;;-3.50;99.90;;;;;;5023161;28;20462;-50
2023/01/20 00:22:20;;;;;;;11.10;4.67;;;-3.50;99.90;;;;;;5009152;28;20223;-48
2023/01/20 00:24:47;;;;;;;5.47;4.87;;;-3.60;99.90;;;;;;5018524;28;20475;-48
2023/01/20 00:27:16;;;;;;;6.37;4.03;;;-3.60;99.90;;;;;;5016454;28;20976;-50
2023/01/20 00:29:43;;;;;;;5.43;3.73;;;-3.60;99.90;;;;;;5024153;28;20201;-48
2023/01/20 00:32:12;;;;;;;8.33;4.47;;;-3.60;99.90;;;;;;5014095;28;21039;-50
2023/01/20 00:34:39;;;;;;;4.93;3.10;;;-3.60;99.90;;;;;;5011302;28;20461;-49
2023/01/20 00:37:06;;;;;;;4.50;4.03;;;-3.60;99.90;;;;;;5010229;28;21081;-48
2023/01/20 00:39:33;;;;;;;5.30;3.87;;;-3.70;99.90;;;;;;5008671;28;20464;-51
2023/01/20 00:42:00;;;;;;;6.03;3.63;;;-3.70;99.90;;;;;;5021102;28;20905;-48
2023/01/20 00:44:27;;;;;;;4.67;3.80;;;-3.60;99.90;;;;;;5012896;28;20482;-50
2023/01/20 00:46:54;;;;;;;6.53;4.27;;;-3.70;99.90;;;;;;5012617;28;20828;-49
2023/01/20 00:49:22;;;;;;;9.43;4.50;;;-3.70;99.90;;;;;;5013719;28;20466;-48
2023/01/20 00:51:50;;;;;;;6.07;4.93;;;-3.70;99.90;;;;;;5018180;28;20479;-49
2023/01/20 00:54:32;;;;;;;6.50;4.10;;;-3.80;99.90;;;;;;4986910;28;20793;-50
2023/01/20 00:56:59;;;;;;;8.63;4.63;;;-3.80;99.90;;;;;;5010730;28;20495;-49
2023/01/20 00:59:27;;;;;;;6.73;3.80;;;-3.80;99.90;;;;;;5024345;28;20467;-48
2023/01/20 01:01:54;;;;;;;7.63;3.80;;;-3.80;99.90;;;;;;5017396;28;20493;-48
2023/01/20 01:04:23;;;;;;;9.50;6.43;;;-3.80;99.90;;;;;;5023394;28;20463;-48
2023/01/20 01:06:50;;;;;;;6.67;4.10;;;-3.80;99.90;;;;;;5014889;28;20533;-49
2023/01/20 01:09:17;;;;;;;4.50;4.00;;;-3.90;99.90;;;;;;5018473;28;20465;-49
2023/01/20 01:11:44;;;;;;;6.07;3.73;;;-3.80;99.90;;;;;;5015714;28;20559;-49
2023/01/20 01:14:11;;;;;;;6.47;3.90;;;-3.80;99.90;;;;;;5024115;28;20488;-48
2023/01/20 01:16:39;;;;;;;4.50;3.30;;;-3.70;99.90;;;;;;5017137;28;20538;-49
2023/01/20 01:19:06;;;;;;;6.13;3.53;;;-3.70;99.90;;;;;;5018895;28;20465;-48
2023/01/20 01:21:34;;;;;;;3.63;2.83;;;-3.70;99.90;;;;;;5015343;28;20472;-49
2023/01/20 01:24:01;;;;;;;3.43;3.07;;;-3.60;99.90;;;;;;5024730;28;20469;-48
2023/01/20 01:26:28;;;;;;;5.43;3.77;;;-3.60;99.90;;;;;;5021875;28;20474;-49
2023/01/20 01:28:55;;;;;;;8.37;3.37;;;-3.60;99.90;;;;;;5024070;28;20453;-48
2023/01/20 01:31:22;;;;;;;6.47;4.33;;;-3.70;99.90;;;;;;5023944;28;20540;-49
2023/01/20 01:33:49;;;;;;;5.80;3.90;;;-3.70;99.90;;;;;;5015933;28;20902;-48
2023/01/20 01:36:17;;;;;;;5.13;4.63;;;-3.70;99.90;;;;;;5023514;28;20544;-50
2023/01/20 01:38:45;;;;;;;9.80;7.07;;;-3.70;99.90;;;;;;5013877;28;20548;-48
2023/01/20 01:41:14;;;;;;;19.87;15.70;;;-3.80;99.90;;;;;;5020602;28;20462;-49
2023/01/20 01:44:01;;;;;;;9.80;8.00;;;-3.80;99.90;;;;;;5011742;28;20470;-48
2023/01/20 01:46:28;;;;;;;10.10;7.40;;;-3.80;99.90;;;;;;5010381;28;20473;-51
2023/01/20 01:48:59;;;;;;;9.97;6.50;;;-3.90;99.90;;;;;;5011914;28;20528;-48
2023/01/20 01:51:29;;;;;;;11.90;8.77;;;-3.90;99.90;;;;;;5019626;28;20463;-49
2023/01/20 01:54:03;;;;;;;8.07;6.40;;;-3.90;99.90;;;;;;5012670;28;20459;-48
2023/01/20 01:56:30;;;;;;;13.13;10.30;;;-3.90;99.90;;;;;;5013231;28;20458;-48
2023/01/20 01:59:00;;;;;;;7.77;6.97;;;-3.90;99.90;;;;;;5012301;28;20520;-48
2023/01/20 02:01:28;;;;;;;8.77;5.00;;;-3.90;99.90;;;;;;5012047;28;20844;-49
2023/01/20 02:03:58;;;;;;;7.13;5.03;;;-4.00;99.90;;;;;;5008731;28;20463;-48
2023/01/20 02:06:31;;;;;;;8.70;4.47;;;-3.90;99.90;;;;;;5011575;28;20515;-48
2023/01/20 02:09:02;;;;;;;7.67;3.57;;;-3.90;99.90;;;;;;5003922;28;20469;-47
2023/01/20 02:11:30;;;;;;;11.43;4.37;;;-3.90;99.90;;;;;;5019535;28;20929;-49
2023/01/20 02:13:57;;;;;;;3.93;3.47;;;-3.90;99.90;;;;;;5020202;28;20853;-50
2023/01/20 02:16:33;;;;;;;7.37;4.40;;;-3.90;99.90;;;;;;5020480;28;20556;-48
2023/01/20 02:19:20;;;;;;;4.30;3.47;;;-3.90;99.90;;;;;;5008452;28;20572;-48
2023/01/20 02:22:04;;;;;;;5.47;4.13;;;-3.80;99.90;;;;;;5015656;28;20518;-47
2023/01/20 02:25:03;;;;;;;5.23;3.73;;;-3.80;99.90;;;;;;5011112;28;20989;-51
2023/01/20 02:27:55;;;;;;;4.37;3.97;;;-3.60;99.90;;;;;;5028440;28;20453;-51
2023/01/20 02:30:39;;;;;;;6.57;3.03;;;-3.60;99.90;;;;;;5007044;28;21002;-48
2023/01/20 02:33:12;;;;;;;9.40;6.77;;;-3.60;99.90;;;;;;5006782;28;21015;-47
2023/01/20 02:35:45;;;;;;;6.70;6.10;;;-3.60;99.90;;;;;;5021166;28;20465;-50
2023/01/20 02:38:19;;;;;;;11.00;6.20;;;-3.80;99.90;;;;;;5016428;28;20510;-48
2023/01/20 02:40:55;;;;;;;9.03;5.83;;;-3.80;99.90;;;;;;5012494;28;20466;-48
2023/01/20 02:43:29;;;;;;;13.87;6.93;;;-3.90;99.90;;;;;;5025011;28;20501;-48
2023/01/20 02:46:03;;;;;;;7.43;4.00;;;-3.90;99.90;;;;;;5009736;28;20959;-48
2023/01/20 02:48:38;;;;;;;4.17;3.77;;;-3.90;99.90;;;;;;5011971;28;20474;-48
2023/01/20 02:51:10;;;;;;;6.23;3.80;;;-3.90;99.90;;;;;;5014329;28;21075;-48
2023/01/20 02:53:45;;;;;;;3.83;3.07;;;-3.90;99.90;;;;;;5010351;28;21002;-48
2023/01/20 02:56:13;;;;;;;10.13;3.83;;;-3.90;99.90;;;;;;5023193;28;20964;-49
2023/01/20 02:58:46;;;;;;;3.30;3.03;;;-3.80;99.90;;;;;;5027098;28;20482;-49
2023/01/20 03:01:20;;;;;;;3.73;2.87;;;-3.80;99.90;;;;;;5022271;28;20465;-49
2023/01/20 03:03:51;;;;;;;3.43;3.13;;;-3.80;99.90;;;;;;5019725;28;20512;-47
2023/01/20 03:06:22;;;;;;;5.17;3.37;;;-3.80;99.90;;;;;;5017478;28;20470;-49
2023/01/20 03:08:53;;;;;;;5.17;2.93;;;-3.70;99.90;;;;;;5023891;28;20464;-48
2023/01/20 03:11:20;;;;;;;4.93;3.70;;;-3.60;99.90;;;;;;5024835;28;20442;-48
2023/01/20 03:13:52;;;;;;;4.53;3.00;;;-3.60;99.90;;;;;;5024578;28;20455;-48
2023/01/20 03:16:22;;;;;;;4.73;2.93;;;-3.60;99.90;;;;;;5019414;28;20467;-48
2023/01/20 03:18:51;;;;;;;2.60;2.47;;;-3.50;99.90;;;;;;5024407;28;20891;-48
2023/01/20 03:21:19;;;;;;;5.27;2.90;;;-3.60;99.90;;;;;;5015418;28;20536;-50
2023/01/20 03:23:48;;;;;;;4.37;2.50;;;-3.60;99.90;;;;;;5010946;28;20596;-47
2023/01/20 03:26:16;;;;;;;3.33;2.60;;;-3.60;99.90;;;;;;5018578;28;20453;-49
2023/01/20 03:28:44;;;;;;;3.53;2.33;;;-3.60;99.90;;;;;;5027974;28;20500;-48
2023/01/20 03:31:15;;;;;;;3.83;3.10;;;-3.50;99.90;;;;;;5019447;28;20952;-48
2023/01/20 03:33:43;;;;;;;6.80;3.00;;;-3.60;99.90;;;;;;5014505;28;20462;-48
2023/01/20 03:36:13;;;;;;;5.40;3.43;;;-3.60;99.90;;;;;;5024271;28;20542;-48
2023/01/20 03:38:41;;;;;;;2.50;2.30;;;-3.50;99.90;;;;;;5013220;28;21019;-50
2023/01/20 03:41:14;;;;;;;6.17;3.50;;;-3.40;99.90;;;;;;5015467;28;20465;-48
2023/01/20 03:43:48;;;;;;;6.27;3.20;;;-3.40;99.90;;;;;;5038304;22;20497;-49
2023/01/20 03:46:23;;;;;;;5.90;2.93;;;-3.40;99.90;;;;;;5025697;28;20455;-49
2023/01/20 03:48:56;;;;;;;3.67;2.53;;;-3.30;99.90;;;;;;5013706;28;20446;-49
2023/01/20 03:51:30;;;;;;;7.53;2.43;;;-3.40;99.90;;;;;;5024864;28;20450;-49
2023/01/20 03:54:01;;;;;;;2.57;2.37;;;-3.30;99.90;;;;;;5029025;28;20478;-50
2023/01/20 03:56:35;;;;;;;6.50;3.00;;;-3.20;99.90;;;;;;5028513;28;20458;-48
2023/01/20 03:59:03;;;;;;;4.37;3.03;;;-3.30;99.90;;;;;;5031232;28;20490;-48
2023/01/20 04:01:34;;;;;;;6.27;3.43;;;-3.30;99.90;;;;;;5026654;28;20475;-52
2023/01/20 04:04:04;;;;;;;6.37;3.10;;;-3.20;99.90;;;;;;5023906;28;20486;-49
2023/01/20 04:06:34;;;;;;;3.80;2.27;;;-3.20;99.90;;;;;;5028115;28;20465;-47
2023/01/20 04:09:05;;;;;;;4.83;2.67;;;-3.30;99.90;;;;;;5022901;28;20512;-49
2023/01/20 04:11:32;;;;;;;3.50;2.47;;;-3.30;99.90;;;;;;5022305;28;20457;-51
2023/01/20 04:13:59;;;;;;;5.53;2.53;;;-3.30;99.90;;;;;;5029221;28;20527;-49
2023/01/20 04:16:27;;;;;;;5.30;3.00;;;-3.40;99.90;;;;;;5023270;28;20447;-48
2023/01/20 04:18:54;;;;;;;3.67;3.00;;;-3.40;99.90;;;;;;5027833;28;20527;-49
2023/01/20 04:21:26;;;;;;;5.67;2.73;;;-3.50;99.90;;;;;;5023217;28;20453;-48
2023/01/20 04:24:00;;;;;;;3.10;2.80;;;-3.50;99.90;;;;;;5021018;28;20486;-50
2023/01/20 04:26:27;;;;;;;6.13;3.43;;;-3.60;99.90;;;;;;5022543;28;20538;-50
2023/01/20 04:28:54;;;;;;;4.40;3.23;;;-3.60;99.90;;;;;;5022342;28;20492;-49
2023/01/20 04:31:21;;;;;;;3.40;2.87;;;-3.60;99.90;;;;;;5022206;28;20466;-48
2023/01/20 04:33:48;;;;;;;7.23;3.20;;;-3.60;99.90;;;;;;5023927;28;20482;-50
2023/01/20 04:36:15;;;;;;;3.63;3.03;;;-3.60;99.90;;;;;;5027801;28;20461;-49
2023/01/20 04:38:42;;;;;;;3.70;2.27;;;-3.60;99.90;;;;;;5026096;28;20532;-49
2023/01/20 04:41:12;;;;;;;5.90;3.70;;;-3.50;99.90;;;;;;5024822;28;20458;-48
2023/01/20 04:43:42;;;;;;;11.80;3.57;;;-3.60;99.90;;;;;;5034200;28;20501;-48
2023/01/20 04:46:11;;;;;;;4.53;3.20;;;-3.50;99.90;;;;;;5026395;28;20203;-48
2023/01/20 04:48:38;;;;;;;5.60;3.40;;;-3.60;99.90;;;;;;5020330;28;20458;-48
2023/01/20 04:51:06;;;;;;;4.97;2.97;;;-3.50;99.90;;;;;;5029974;28;20467;-48
2023/01/20 04:53:33;;;;;;;3.80;3.37;;;-3.50;99.90;;;;;;5022852;28;20483;-49
2023/01/20 04:56:00;;;;;;;3.07;2.77;;;-3.50;99.90;;;;;;5026109;28;20441;-48
2023/01/20 04:58:28;;;;;;;3.47;3.17;;;-3.50;99.90;;;;;;5025917;28;20477;-49
2023/01/20 05:00:55;;;;;;;4.97;3.70;;;-3.40;99.90;;;;;;5029450;28;20871;-49
2023/01/20 05:03:22;;;;;;;4.63;2.93;;;-3.40;99.90;;;;;;5034504;28;20539;-49
2023/01/20 05:05:53;;;;;;;4.80;2.93;;;-3.40;99.90;;;;;;5023986;28;20886;-49
2023/01/20 05:08:20;;;;;;;5.10;2.70;;;-3.40;99.90;;;;;;5030292;28;20468;-49
2023/01/20 05:10:47;;;;;;;3.93;2.63;;;-3.40;99.90;;;;;;5023942;28;20466;-48
2023/01/20 05:13:14;;;;;;;3.73;2.87;;;-3.30;99.90;;;;;;5030463;28;20490;-48
2023/01/20 05:15:44;;;;;;;5.50;2.80;;;-3.30;99.90;;;;;;5026045;28;20460;-49
2023/01/20 05:18:11;;;;;;;12.53;4.57;;;-3.30;99.90;;;;;;5029256;28;20496;-49
2023/01/20 05:20:38;;;;;;;6.23;3.17;;;-3.30;99.90;;;;;;5020635;28;20466;-48
2023/01/20 05:23:05;;;;;;;5.03;3.83;;;-3.30;99.90;;;;;;5031125;28;20485;-48
2023/01/20 05:25:33;;;;;;;5.93;3.53;;;-3.20;99.90;;;;;;5026443;28;20453;-49
2023/01/20 05:28:00;;;;;;;8.03;3.93;;;-3.20;99.90;;;;;;5034471;28;20453;-49
2023/01/20 05:30:26;;;;;;;5.60;3.73;;;-3.20;99.90;;;;;;5024162;28;20558;-49
2023/01/20 05:32:55;;;;;;;6.20;4.77;;;-3.20;99.90;;;;;;5029215;28;20905;-49
2023/01/20 05:35:22;;;;;;;12.90;5.53;;;-3.10;99.90;;;;;;5019207;28;20446;-49
2023/01/20 05:37:53;;;;;;;6.60;5.33;;;-3.10;99.90;;;;;;5014624;28;21014;-48
2023/01/20 05:40:20;;;;;;;7.70;5.03;;;-3.10;99.90;;;;;;5014599;28;20569;-48
2023/01/20 05:42:47;;;;;;;5.07;3.47;;;-3.10;99.90;;;;;;5019555;28;20494;-50
2023/01/20 05:45:14;;;;;;;4.33;3.83;;;-3.00;99.90;;;;;;5032817;28;20464;-48
2023/01/20 05:47:41;;;;;;;8.77;3.67;;;-3.00;99.90;;;;;;5015563;28;20502;-49
2023/01/20 05:50:11;;;;;;;4.47;2.97;;;-3.00;99.90;;;;;;5014574;28;20445;-48
2023/01/20 05:52:38;;;;;;;8.53;5.20;;;-2.90;99.90;;;;;;5025052;28;20481;-49
2023/01/20 05:55:05;;;;;;;13.80;7.20;;;-2.90;99.90;;;;;;5027057;28;20458;-50
2023/01/20 05:57:32;;;;;;;16.33;8.87;;;-2.90;99.90;;;;;;5034026;28;20449;-48
2023/01/20 05:59:59;;;;;;;19.60;8.40;;;-2.90;99.90;;;;;;5024624;28;20482;-50
2023/01/20 06:02:29;;;;;;;14.90;9.30;;;-3.00;99.90;;;;;;5029645;28;20535;-49
2023/01/20 06:05:00;;;;;;;10.63;6.97;;;-2.90;99.90;;;;;;5025314;28;20463;-48
2023/01/20 06:07:29;;;;;;;18.17;7.67;;;-2.80;99.90;;;;;;5017547;28;20446;-49
2023/01/20 06:09:56;;;;;;;13.03;7.07;;;-2.90;99.90;;;;;;5019277;28;20491;-49
2023/01/20 06:12:23;;;;;;;17.57;7.03;;;-2.90;99.90;;;;;;5025115;28;20890;-48
2023/01/20 06:14:50;;;;;;;15.60;6.77;;;-2.90;99.90;;;;;;5023836;28;21328;-50
2023/01/20 06:17:17;;;;;;;12.43;6.13;;;-2.90;99.90;;;;;;5025468;28;20442;-48
2023/01/20 06:19:44;;;;;;;6.23;4.13;;;-2.90;99.90;;;;;;5029930;28;20481;-50
2023/01/20 06:22:18;;;;;;;7.40;5.93;;;-2.90;99.90;;;;;;5027095;28;20516;-48
2023/01/20 06:24:47;;;;;;;6.33;3.67;;;-2.90;99.90;;;;;;5033581;28;20434;-49
2023/01/20 06:27:17;;;;;;;16.47;4.43;;;-2.90;99.90;;;;;;5033509;28;20453;-49
2023/01/20 06:29:44;;;;;;;2.83;2.50;;;-2.90;99.90;;;;;;5029381;28;20902;-49
2023/01/20 06:32:14;;;;;;;7.00;3.07;;;-2.90;99.90;;;;;;5026390;28;20461;-48
2023/01/20 06:34:41;;;;;;;4.47;3.40;;;-2.80;99.90;;;;;;5021962;28;20727;-47
2023/01/20 06:37:08;;;;;;;9.40;3.23;;;-2.80;99.90;;;;;;5030909;28;20451;-47
2023/01/20 06:39:36;;;;;;;3.17;2.77;;;-2.70;99.90;;;;;;5021460;28;20507;-47
2023/01/20 06:42:05;;;;;;;7.40;3.17;;;-2.70;99.90;;;;;;5013070;28;20451;-47
2023/01/20 06:44:32;;;;;;;6.90;3.23;;;-2.80;99.90;;;;;;5022799;28;20450;-49
2023/01/20 06:46:59;;;;;;;9.50;3.57;;;-2.70;99.90;;;;;;5033247;28;20823;-48
2023/01/20 06:49:26;;;;;;;3.50;3.20;;;-2.80;99.90;;;;;;5021263;28;20531;-50
2023/01/20 06:51:53;;;;;;;5.37;3.00;;;-2.80;99.90;;;;;;5020448;28;20462;-49
2023/01/20 06:54:20;;;;;;;11.70;3.80;;;-2.80;99.90;;;;;;5021770;28;20473;-50
2023/01/20 06:56:47;;;;;;;8.03;3.30;;;-2.80;99.90;;;;;;5014506;28;20207;-49
2023/01/20 06:59:16;;;;;;;5.27;3.27;;;-2.80;99.90;;;;;;5032834;28;20540;-49
2023/01/20 07:01:43;;;;;;;7.73;2.80;;;-2.80;99.90;;;;;;5032655;28;20669;-49
2023/01/20 07:04:13;;;;;;;8.53;2.50;;;-2.80;99.90;;;;;;5032384;28;20515;-49
2023/01/20 07:06:41;;;;;;;5.87;2.70;;;-2.80;99.90;;;;;;5033057;28;20450;-47
2023/01/20 07:09:11;;;;;;;5.57;3.13;;;-2.80;99.90;;;;;;5025467;28;20446;-46
2023/01/20 07:11:38;;;;;;;4.63;3.03;;;-2.80;99.90;;;;;;5032647;28;20454;-47
2023/01/20 07:14:06;;;;;;;8.33;4.37;;;-2.80;99.90;;;;;;5032407;28;20475;-47
2023/01/20 07:16:34;;;;;;;13.40;5.80;;;-2.80;99.90;;;;;;5032464;28;20512;-48
2023/01/20 07:19:02;;;;;;;15.77;5.43;;;-2.70;99.90;;;;;;5027590;28;20556;-50
2023/01/20 07:21:29;;;;;;;6.33;3.73;;;-2.70;99.90;;;;;;5021065;28;20462;-49
2023/01/20 07:23:56;;;;;;;10.93;4.87;;;-2.60;99.90;;;;;;5021785;28;20919;-50
2023/01/20 07:26:25;;;;;;;7.83;5.80;;;-2.60;99.90;;;;;;5032061;28;20445;-50
2023/01/20 07:28:52;;;;;;;7.77;4.97;;;-2.60;99.90;;;;;;5031990;28;20449;-49
2023/01/20 07:31:21;;;;;;;5.17;3.40;;;-2.50;99.90;;;;;;5032244;28;20457;-50
2023/01/20 07:33:50;;;;;;;4.30;3.70;;;-2.50;99.90;;;;;;5032004;28;20442;-49
2023/01/20 07:36:18;;;;;;;5.93;3.17;;;-2.40;99.90;;;;;;5032716;28;20207;-50
2023/01/20 07:38:48;;;;;;;9.60;3.10;;;-2.40;99.90;;;;;;5024819;28;20462;-48
2023/01/20 07:41:17;;;;;;;6.17;3.00;;;-2.30;99.90;;;;;;5018601;28;20477;-49
2023/01/20 07:43:44;;;;;;;6.43;2.83;;;-2.30;99.90;;;;;;5022501;28;20254;-50
2023/01/20 07:46:11;;;;;;;5.32;3.15;;;-2.30;99.90;;;;;;5017527;28;20512;-49
2023/01/20 07:48:39;;;;;;;5.73;3.43;;;-2.20;99.90;;;;;;5014759;28;20203;-48
2023/01/20 07:51:09;;;;;;;4.33;3.33;;;-2.10;99.90;;;;;;5025654;28;20458;-49
2023/01/20 07:53:38;;;;;;;4.67;3.63;;;-2.10;99.90;;;;;;5029093;28;20465;-48
2023/01/20 07:56:07;;;;;;;4.37;3.73;;;-2.00;99.90;;;;;;5031350;28;20245;-48
2023/01/20 07:58:34;;;;;;;5.50;3.57;;;-1.90;99.90;;;;;;5032023;28;20530;-53
2023/01/20 08:01:07;;;;;;;9.90;5.27;;;-1.80;99.90;;;;;;5031498;28;20495;-48
2023/01/20 08:03:35;;;;;;;8.17;5.00;;;-1.70;99.90;;;;;;5031592;28;20336;-48
2023/01/20 08:06:03;;;;;;;9.97;5.10;;;-1.70;99.90;;;;;;5031759;28;20212;-47
2023/01/20 08:08:33;;;;;;;10.83;5.03;;;-1.60;99.90;;;;;;5031240;28;20289;-46
2023/01/20 08:11:00;;;;;;;6.93;3.97;;;-1.60;99.90;;;;;;5031407;28;20260;-46
2023/01/20 08:13:28;;;;;;;8.63;4.77;;;-1.60;99.90;;;;;;5031437;28;20314;-47
2023/01/20 08:15:55;;;;;;;8.10;3.50;;;-1.60;99.90;;;;;;5012828;28;20670;-47
2023/01/20 08:18:22;;;;;;;4.87;3.60;;;-1.70;99.90;;;;;;5029781;28;20199;-47
2023/01/20 08:20:49;;;;;;;8.23;3.87;;;-1.80;99.90;;;;;;5031428;28;20224;-47
2023/01/20 08:23:16;;;;;;;5.50;3.97;;;-1.90;99.90;;;;;;5029969;28;20280;-47
2023/01/20 08:25:46;;;;;;;6.93;3.90;;;-1.90;99.90;;;;;;5022458;28;20266;-47
2023/01/20 08:28:13;;;;;;;6.00;3.97;;;-1.80;99.90;;;;;;5018982;28;20227;-47
2023/01/20 08:30:40;;;;;;;6.77;4.37;;;-1.90;99.90;;;;;;5019896;28;20196;-47
2023/01/20 08:33:07;;;;;;;7.60;4.23;;;-1.90;99.90;;;;;;5011340;28;20232;-47
2023/01/20 08:35:35;;;;;;;5.97;3.43;;;-1.90;99.90;;;;;;5021082;28;20293;-47
2023/01/20 08:38:02;;;;;;;4.03;3.63;;;-1.80;99.90;;;;;;5024735;28;20420;-47
2023/01/20 08:40:29;;;;;;;8.90;4.50;;;-1.80;99.90;;;;;;5019952;28;20326;-47
2023/01/20 08:42:57;;;;;;;7.60;3.50;;;-1.90;99.90;;;;;;5011288;28;20529;-47
2023/01/20 08:45:24;;;;;;;12.10;6.83;;;-1.80;99.90;;;;;;5011733;28;20447;-46
2023/01/20 08:47:51;;;;;;;7.30;3.53;;;-1.70;99.90;;;;;;5011731;28;20264;-47
2023/01/20 08:50:21;;;;;;;3.30;2.97;;;-1.70;99.90;;;;;;5011482;28;20251;-47
2023/01/20 08:52:48;;;;;;;5.07;3.67;;;-1.80;99.90;;;;;;5022358;28;20844;-47
2023/01/20 08:55:15;;;;;;;6.20;3.07;;;-1.80;99.90;;;;;;5031492;28;20532;-47
2023/01/20 08:57:42;;;;;;;6.40;3.60;;;-1.70;99.90;;;;;;5031211;28;20442;-47
2023/01/20 09:00:12;;;;;;;7.80;3.20;;;-1.70;99.90;;;;;;5031149;28;20708;-47
2023/01/20 09:02:39;;;;;;;11.13;4.13;;;-1.60;99.90;;;;;;5031000;28;20501;-46
2023/01/20 09:05:08;;;;;;;8.10;4.23;;;-1.50;99.90;;;;;;5031158;28;20512;-47
2023/01/20 09:07:36;;;;;;;4.97;3.57;;;-1.70;99.90;;;;;;5031409;28;20441;-47
2023/01/20 09:10:04;;;;;;;7.83;3.70;;;-1.70;99.90;;;;;;5031021;28;20451;-47
2023/01/20 09:12:31;;;;;;;3.10;2.60;;;-1.80;99.90;;;;;;5031018;28;20457;-47
2023/01/20 09:14:58;;;;;;;5.67;2.70;;;-1.70;99.90;;;;;;5031286;28;20203;-46
2023/01/20 09:17:26;;;;;;;4.17;2.83;;;-1.70;99.90;;;;;;5031079;28;20446;-46
2023/01/20 09:19:53;;;;;;;3.37;2.13;;;-1.70;99.90;;;;;;5030936;28;21014;-47
2023/01/20 09:22:20;;;;;;;5.53;2.00;;;-1.70;99.90;;;;;;5034372;28;20504;-47
2023/01/20 09:24:47;;;;;;;4.60;2.70;;;-1.70;99.90;;;;;;5034547;28;20266;-46
2023/01/20 09:27:16;;;;;;;4.83;2.97;;;-1.60;99.90;;;;;;5034443;28;20215;-47
2023/01/20 09:29:43;;;;;;;5.20;2.17;;;-1.60;99.90;;;;;;5034589;28;20258;-48
2023/01/20 09:32:14;;;;;;;6.80;3.10;;;-1.50;99.90;;;;;;5034353;28;20296;-47
2023/01/20 09:34:42;;;;;;;8.00;3.47;;;-1.40;99.90;;;;;;5034435;28;20736;-47
2023/01/20 09:45:52;;;;;;;11.37;8.13;;;-1.30;99.90;;;;;;5039071;22;20248;-47
2023/01/20 09:54:20;;;;;;;4.50;2.67;;;-1.10;99.90;;;;;;4993684;28;20209;-47
2023/01/20 09:56:49;;;;;;;7.30;3.78;;;-1.10;99.90;;;;;;5011295;28;20438;-47
2023/01/20 09:59:22;;;;;;;14.63;4.40;;;-1.00;99.90;;;;;;5013117;28;20558;-47
2023/01/20 10:01:52;;;;;;;5.43;2.47;;;-1.00;99.90;;;;;;4994213;28;20205;-48
2023/01/20 10:04:24;;;;;;;7.80;2.93;;;-0.90;99.90;;;;;;4993572;28;20324;-47
2023/01/20 10:06:56;;;;;;;5.13;2.20;;;-0.90;99.90;;;;;;5012755;28;20274;-47
2023/01/20 10:09:32;;;;;;;2.37;1.97;;;-0.90;99.90;;;;;;5013198;28;20216;-48
2023/01/20 10:12:05;;;;;;;2.77;2.00;;;-1.10;99.90;;;;;;5012943;28;20201;-47
2023/01/20 10:14:37;;;;;;;10.90;2.67;;;-1.00;99.90;;;;;;5011718;28;20271;-46
2023/01/20 10:17:10;;;;;;;2.63;2.30;;;-1.00;99.90;;;;;;4997057;28;20735;-47
2023/01/20 10:19:41;;;;;;;4.47;3.10;;;-1.00;99.90;;;;;;5009814;28;20203;-47
2023/01/20 10:22:16;;;;;;;10.40;2.67;;;-1.00;99.90;;;;;;5012758;28;20208;-47
2023/01/20 10:24:51;;;;;;;5.80;2.73;;;-0.80;99.90;;;;;;5012450;28;20229;-48
2023/01/20 10:27:19;;;;;;;3.30;2.30;;;-0.80;99.90;;;;;;5012462;28;20255;-47
2023/01/20 10:29:52;;;;;;;8.73;2.67;;;-0.60;99.90;;;;;;5010560;28;20284;-47
2023/01/20 10:32:31;;;;;;;7.43;2.50;;;-0.50;99.90;;;;;;5008847;28;20308;-46
2023/01/20 10:35:00;;;;;;;5.47;2.13;;;-0.60;99.90;;;;;;5006614;28;20224;-47
2023/01/20 10:37:31;;;;;;;2.90;2.60;;;-0.60;99.90;;;;;;5012434;28;20203;-47
2023/01/20 10:40:06;;;;;;;5.33;2.87;;;-0.50;99.90;;;;;;5012404;28;20215;-47
2023/01/20 10:42:34;;;;;;;6.60;3.40;;;-0.60;99.90;;;;;;5012483;28;20207;-47
2023/01/20 10:45:01;;;;;;;6.93;3.13;;;-0.50;99.90;;;;;;5012132;28;20285;-47
2023/01/20 10:47:40;;;;;;;10.70;3.73;;;-0.60;99.90;;;;;;5011430;28;20213;-47
2023/01/20 10:50:28;;;;;;;5.43;4.27;;;-0.50;99.90;;;;;;5012126;28;20207;-47
2023/01/20 10:53:24;;;;;;;4.30;2.87;;;-0.50;99.90;;;;;;5011494;28;20211;-46
2023/01/20 10:56:07;;;;;;;6.13;3.57;;;-0.50;99.90;;;;;;4998620;28;20232;-48
2023/01/20 10:58:38;;;;;;;6.53;2.83;;;-0.50;99.90;;;;;;5010560;28;20205;-47
2023/01/20 11:01:08;;;;;;;5.30;2.80;;;-0.50;99.90;;;;;;5009883;28;20222;-47
2023/01/20 11:03:39;;;;;;;3.87;2.83;;;-0.60;99.90;;;;;;5009716;28;20255;-47
2023/01/20 11:06:07;;;;;;;8.73;4.13;;;-0.60;99.90;;;;;;5000913;28;20222;-47
2023/01/20 11:08:35;;;;;;;7.87;3.60;;;-0.70;99.90;;;;;;5003399;28;20207;-47
2023/01/20 11:11:11;;;;;;;6.60;3.10;;;-0.70;99.90;;;;;;4992623;28;20204;-47
2023/01/20 11:13:39;;;;;;;9.27;3.07;;;-0.80;99.90;;;;;;4992218;28;20220;-47
2023/01/20 11:16:13;;;;;;;6.63;3.10;;;-0.80;99.90;;;;;;4992463;28;20229;-47
2023/01/20 11:18:40;;;;;;;6.93;3.33;;;-0.80;99.90;;;;;;5005225;28;20570;-47
2023/01/20 11:21:11;;;;;;;5.87;3.80;;;-0.80;99.90;;;;;;5006667;28;20715;-47
2023/01/20 11:23:47;;;;;;;7.10;2.70;;;-0.70;99.90;;;;;;5007611;28;20223;-47
2023/01/20 11:26:20;;;;;;;13.20;4.17;;;-0.70;99.90;;;;;;4997379;28;20275;-47
2023/01/20 11:28:52;;;;;;;4.07;2.70;;;-0.70;99.90;;;;;;5010994;28;20659;-47
2023/01/20 11:31:20;;;;;;;2.77;2.57;;;-0.60;99.90;;;;;;5006649;28;20629;-47
2023/01/20 11:33:59;;;;;;;8.83;3.57;;;-0.50;99.90;;;;;;5011152;28;20216;-47
2023/01/20 11:36:26;;;;;;;12.50;4.27;;;-0.60;99.90;;;;;;5011394;28;20304;-47
2023/01/20 11:38:56;;;;;;;8.20;3.70;;;-0.40;99.90;;;;;;5008494;28;20204;-47
2023/01/20 11:41:24;;;;;;;11.03;3.67;;;-0.30;99.90;;;;;;5002980;28;20235;-47
2023/01/20 11:43:54;;;;;;;8.00;3.07;;;-0.20;99.90;;;;;;5005295;28;20213;-50
2023/01/20 11:46:28;;;;;;;4.93;3.57;;;-0.10;99.90;;;;;;5011212;28;20278;-49
2023/01/20 11:49:13;;;;;;;6.53;3.83;;;-0.20;99.90;;;;;;5011343;28;20196;-48
2023/01/20 11:51:45;;;;;;;8.30;3.63;;;-0.10;99.90;;;;;;5011507;28;20208;-50
2023/01/20 11:54:17;;;;;;;8.63;4.60;;;-0.10;99.90;;;;;;4998524;28;20663;-47
2023/01/20 11:56:47;;;;;;;6.43;3.80;;;0.10;99.90;;;;;;5007277;28;20213;-47
2023/01/20 11:59:23;;;;;;;5.17;3.80;;;0.10;99.90;;;;;;5009572;28;20283;-47
2023/01/20 12:01:55;;;;;;;4.90;4.10;;;0.00;99.90;;;;;;4993222;28;20326;-47
2023/01/20 12:04:44;;;;;;;7.53;3.70;;;0.00;99.90;;;;;;4997961;28;20575;-47
2023/01/20 12:07:19;;;;;;;6.53;4.43;;;0.00;99.90;;;;;;5004525;28;20279;-48
2023/01/20 12:09:53;;;;;;;5.93;3.43;;;0.00;99.90;;;;;;5000566;28;20208;-51
2023/01/20 12:12:28;;;;;;;9.53;4.57;;;0.00;99.90;;;;;;4997179;28;20291;-51
2023/01/20 12:15:02;;;;;;;10.77;4.30;;;0.00;99.90;;;;;;5008877;28;20223;-48
2023/01/20 12:17:50;;;;;;;5.17;4.67;;;0.20;99.90;;;;;;5008941;28;20205;-49
2023/01/20 12:20:23;;;;;;;7.77;3.80;;;0.20;99.90;;;;;;5004578;28;20577;-48
2023/01/20 12:23:04;;;;;;;4.70;3.87;;;0.30;99.90;;;;;;5008770;28;20294;-48
2023/01/20 12:25:43;;;;;;;7.83;4.30;;;0.20;99.90;;;;;;5009108;28;20675;-48
2023/01/20 12:28:16;;;;;;;6.87;3.50;;;0.00;99.90;;;;;;5001967;28;20203;-48
2023/01/20 12:30:52;;;;;;;4.07;3.70;;;0.00;99.90;;;;;;5001533;28;20685;-48
2023/01/20 12:33:24;;;;;;;4.90;4.17;;;-0.20;99.90;;;;;;4999470;28;20200;-48
2023/01/20 12:36:18;;;;;;;15.97;8.20;;;-0.30;99.90;;;;;;5001547;28;20232;-48
2023/01/20 12:39:12;;;;;;;5.97;4.40;;;-0.20;99.90;;;;;;4995013;28;20251;-48
2023/01/20 12:41:59;;;;;;;6.40;3.97;;;-0.20;99.90;;;;;;5010631;28;20233;-48
2023/01/20 12:44:32;;;;;;;8.87;4.43;;;-0.20;99.90;;;;;;5010766;28;20239;-48
2023/01/20 12:47:10;;;;;;;5.57;4.20;;;-0.30;99.90;;;;;;5010514;28;20581;-48
2023/01/20 12:49:52;;;;;;;6.33;3.27;;;-0.20;99.90;;;;;;5009522;28;20223;-49
2023/01/20 12:52:39;;;;;;;6.87;4.03;;;-0.20;99.90;;;;;;5010764;28;20256;-49
2023/01/20 12:55:20;;;;;;;8.73;4.70;;;-0.20;99.90;;;;;;5011429;28;20709;-48
2023/01/20 12:58:12;;;;;;;9.23;5.07;;;-0.20;99.90;;;;;;5014437;28;20407;-48
2023/01/20 13:01:06;;;;;;;4.67;3.97;;;-0.20;99.90;;;;;;5014393;28;20260;-48
2023/01/20 13:04:20;;;;;;;4.50;3.97;;;-0.10;99.90;;;;;;5013976;28;20213;-48
2023/01/20 13:07:00;;;;;;;7.53;4.93;;;-0.10;99.90;;;;;;4933420;29;20221;-48
2023/01/20 13:09:50;;;;;;;12.20;4.50;;;-0.20;99.90;;;;;;5002091;28;20220;-49
2023/01/20 13:12:39;;;;;;;9.23;5.60;;;-0.10;99.90;;;;;;5010932;28;20222;-49
2023/01/20 13:15:18;;;;;;;12.50;5.60;;;-0.10;99.90;;;;;;5013847;28;20275;-48
2023/01/20 13:18:00;;;;;;;6.20;4.63;;;-0.10;99.90;;;;;;5014462;28;20287;-50